Time;durP1;ratioP1;P1;durP2;ratioP2;P2;SDS_P1;SDS_P2;PMS_P1;PMS_P2;Temp;Humidity;BMP_temperature;BMP_pressure;BME280_temperature;BME280_humidity;BME280_pressure;Samples;Min_cycle;Max_cycle;Signal;HPM_P1;HPM_P2
2023/08/15 00:01:58;;;;;;;2.40;2.27;;;20.30;97.50;;;;;;5085557;28;20517;-78
2023/08/15 00:04:25;;;;;;;2.47;2.23;;;20.40;97.30;;;;;;5081872;28;20456;-80
2023/08/15 00:06:52;;;;;;;4.07;1.63;;;20.30;97.20;;;;;;5081067;28;20865;-79
2023/08/15 00:09:20;;;;;;;2.60;2.30;;;20.40;97.40;;;;;;5081533;28;20443;-82
2023/08/15 00:11:47;;;;;;;3.17;2.87;;;20.40;97.20;;;;;;5078190;28;20517;-81
2023/08/15 00:14:15;;;;;;;3.03;2.50;;;20.40;97.40;;;;;;5078972;28;20446;-78
2023/08/15 00:16:42;;;;;;;4.60;2.03;;;20.40;97.60;;;;;;5078434;28;21008;-80
2023/08/15 00:19:09;;;;;;;2.50;2.30;;;20.30;97.70;;;;;;5084868;28;20496;-79
2023/08/15 00:21:36;;;;;;;5.23;2.63;;;20.30;97.80;;;;;;5084436;28;20512;-78
2023/08/15 00:24:03;;;;;;;2.83;2.43;;;20.20;98.60;;;;;;5083241;28;20449;-78
2023/08/15 00:26:32;;;;;;;2.47;2.27;;;20.00;99.00;;;;;;5076346;28;20456;-79
2023/08/15 00:28:59;;;;;;;2.53;2.00;;;19.90;99.20;;;;;;5074831;28;20459;-79
2023/08/15 00:31:26;;;;;;;2.77;2.57;;;19.90;99.80;;;;;;5074954;28;20987;-80
2023/08/15 00:33:53;;;;;;;3.83;3.50;;;19.80;99.80;;;;;;5067776;28;20885;-79
2023/08/15 00:36:20;;;;;;;4.90;3.37;;;19.80;99.70;;;;;;5075658;28;20515;-79
2023/08/15 00:38:46;;;;;;;3.30;2.43;;;19.70;99.90;;;;;;5074663;28;21131;-81
2023/08/15 00:41:14;;;;;;;2.57;2.33;;;19.70;99.90;;;;;;5081193;28;20470;-81
2023/08/15 00:43:42;;;;;;;3.57;1.87;;;19.50;99.90;;;;;;5081074;28;20506;-78
2023/08/15 00:46:09;;;;;;;3.80;2.67;;;19.40;99.90;;;;;;5082463;28;21221;-80
2023/08/15 00:48:37;;;;;;;2.30;2.10;;;19.40;99.90;;;;;;5082403;28;20447;-79
2023/08/15 00:51:04;;;;;;;2.80;2.03;;;19.40;99.90;;;;;;5079348;28;20955;-79
2023/08/15 00:53:34;;;;;;;3.03;2.73;;;19.50;99.90;;;;;;5078114;28;20466;-82
2023/08/15 00:56:01;;;;;;;2.47;2.37;;;19.50;99.90;;;;;;5077828;28;20455;-81
2023/08/15 00:58:29;;;;;;;4.30;2.23;;;19.30;99.90;;;;;;5075626;28;20528;-79
2023/08/15 01:00:57;;;;;;;3.23;2.93;;;19.30;99.90;;;;;;5082750;28;20476;-78
2023/08/15 01:03:25;;;;;;;3.93;2.60;;;19.20;99.90;;;;;;5078857;28;20510;-81
2023/08/15 01:05:52;;;;;;;5.00;2.77;;;19.10;99.90;;;;;;5076139;28;21089;-79
2023/08/15 01:08:19;;;;;;;2.70;2.50;;;19.00;99.90;;;;;;5077441;28;20439;-80
2023/08/15 01:10:47;;;;;;;2.50;2.13;;;19.00;99.90;;;;;;5086261;28;20508;-79
2023/08/15 01:13:20;;;;;;;5.77;2.47;;;19.00;99.90;;;;;;5076742;28;20439;-81
2023/08/15 01:15:51;;;;;;;3.80;2.63;;;18.90;99.90;;;;;;5072184;28;20535;-80
2023/08/15 01:18:25;;;;;;;3.10;2.80;;;18.80;99.90;;;;;;5083221;28;20447;-79
2023/08/15 01:20:55;;;;;;;3.50;2.97;;;18.80;99.90;;;;;;5078661;28;20525;-79
2023/08/15 01:23:39;;;;;;;3.80;3.50;;;18.70;99.90;;;;;;5076709;28;20925;-81
2023/08/15 01:26:06;;;;;;;5.20;2.87;;;18.70;99.90;;;;;;5082295;28;20475;-80
2023/08/15 01:28:33;;;;;;;2.83;2.63;;;18.60;99.90;;;;;;5081966;28;20528;-80
2023/08/15 01:31:10;;;;;;;2.97;2.77;;;18.60;99.90;;;;;;5084291;28;21183;-79
2023/08/15 01:33:41;;;;;;;4.20;2.67;;;18.70;99.90;;;;;;5079255;28;20477;-82
2023/08/15 01:36:13;;;;;;;3.50;2.83;;;18.80;99.90;;;;;;5079952;28;20499;-79
2023/08/15 01:38:44;;;;;;;3.37;2.90;;;18.70;99.90;;;;;;5083071;28;20534;-79
2023/08/15 01:41:15;;;;;;;6.27;2.80;;;18.70;99.90;;;;;;5077016;28;20459;-80
2023/08/15 01:43:47;;;;;;;3.20;3.00;;;18.70;99.90;;;;;;5075376;28;20450;-81
2023/08/15 01:46:14;;;;;;;3.70;3.40;;;18.70;99.90;;;;;;5071819;28;20509;-79
2023/08/15 01:48:43;;;;;;;3.53;3.23;;;18.70;99.90;;;;;;5079613;28;20434;-80
2023/08/15 01:51:10;;;;;;;2.97;2.77;;;18.80;99.90;;;;;;5080390;28;20463;-78
2023/08/15 01:53:38;;;;;;;2.93;2.83;;;18.70;99.90;;;;;;5084177;28;20446;-79
2023/08/15 01:56:07;;;;;;;3.40;3.10;;;18.70;99.90;;;;;;5084244;28;20444;-79
2023/08/15 01:58:34;;;;;;;6.40;2.80;;;18.60;99.90;;;;;;5079995;28;20447;-80
2023/08/15 02:01:02;;;;;;;3.30;3.10;;;18.60;99.90;;;;;;5079884;28;20987;-78
2023/08/15 02:03:29;;;;;;;5.80;3.13;;;18.70;99.90;;;;;;5084418;28;20459;-80
2023/08/15 02:05:57;;;;;;;6.83;2.53;;;18.60;99.90;;;;;;5087898;28;20450;-81
2023/08/15 02:08:24;;;;;;;3.07;2.87;;;18.60;99.90;;;;;;5085017;28;20931;-81
2023/08/15 02:10:52;;;;;;;3.10;2.90;;;18.50;99.90;;;;;;5086782;28;20524;-78
2023/08/15 02:13:20;;;;;;;3.60;3.40;;;18.40;99.90;;;;;;5083687;28;20529;-79
2023/08/15 02:15:47;;;;;;;4.13;3.80;;;18.30;99.90;;;;;;5082981;28;20443;-79
2023/08/15 02:18:14;;;;;;;3.40;3.10;;;18.20;99.90;;;;;;5086089;28;20494;-78
2023/08/15 02:20:41;;;;;;;3.20;3.00;;;18.20;99.90;;;;;;5085441;28;21161;-80
2023/08/15 02:23:09;;;;;;;3.20;3.00;;;18.20;99.90;;;;;;5085423;28;20442;-80
2023/08/15 02:25:36;;;;;;;3.60;3.40;;;18.30;99.90;;;;;;5088052;28;20453;-79
2023/08/15 02:28:03;;;;;;;3.00;2.80;;;18.30;99.90;;;;;;5085309;28;20928;-80
2023/08/15 02:30:37;;;;;;;5.33;3.73;;;18.20;99.90;;;;;;5084014;28;21181;-79
2023/08/15 02:33:04;;;;;;;3.93;3.63;;;18.20;99.90;;;;;;5087668;28;20444;-80
2023/08/15 02:35:31;;;;;;;5.97;4.53;;;18.20;99.90;;;;;;5080201;28;20528;-80
2023/08/15 02:37:58;;;;;;;5.23;3.20;;;18.20;99.90;;;;;;5081300;28;20484;-78
2023/08/15 02:40:26;;;;;;;4.73;3.67;;;18.20;99.90;;;;;;5080335;28;20494;-78
2023/08/15 02:42:53;;;;;;;3.40;3.10;;;18.10;99.90;;;;;;5079968;28;21210;-79
2023/08/15 02:45:20;;;;;;;3.47;2.40;;;18.10;99.90;;;;;;5081967;28;20456;-77
2023/08/15 02:47:49;;;;;;;3.93;3.67;;;18.20;99.90;;;;;;5084906;28;21252;-79
2023/08/15 02:50:17;;;;;;;4.93;4.63;;;18.20;99.90;;;;;;5084600;28;20565;-78
2023/08/15 02:52:44;;;;;;;3.60;3.40;;;18.20;99.90;;;;;;5086626;28;20520;-77
2023/08/15 02:55:11;;;;;;;3.97;3.70;;;18.30;99.90;;;;;;5088271;28;20428;-77
2023/08/15 02:57:39;;;;;;;4.53;3.97;;;18.20;99.90;;;;;;5080531;28;20821;-80
2023/08/15 03:00:07;;;;;;;5.57;4.67;;;18.20;99.90;;;;;;5085714;28;20545;-77
2023/08/15 03:02:34;;;;;;;4.17;3.87;;;18.10;99.90;;;;;;5079516;28;20528;-78
2023/08/15 03:05:03;;;;;;;5.03;4.57;;;18.00;99.90;;;;;;5084648;28;20440;-79
2023/08/15 03:07:30;;;;;;;6.70;4.73;;;17.90;99.90;;;;;;5083029;28;20561;-78
2023/08/15 03:09:57;;;;;;;5.40;5.00;;;17.90;99.90;;;;;;5082663;28;20500;-80
2023/08/15 03:12:24;;;;;;;4.40;3.90;;;17.70;99.90;;;;;;5078868;28;20494;-79
2023/08/15 03:14:51;;;;;;;5.53;4.67;;;17.60;99.90;;;;;;5081919;28;20925;-79
2023/08/15 03:17:19;;;;;;;5.10;4.57;;;17.60;99.90;;;;;;5090893;28;21034;-77
2023/08/15 03:19:46;;;;;;;4.27;3.90;;;17.50;99.90;;;;;;5086287;28;20499;-79
2023/08/15 03:22:14;;;;;;;4.13;3.80;;;17.50;99.90;;;;;;5084723;28;20462;-77
2023/08/15 03:24:42;;;;;;;4.53;4.13;;;17.40;99.90;;;;;;5086930;28;20439;-78
2023/08/15 03:27:09;;;;;;;5.10;4.70;;;17.40;99.90;;;;;;5084377;28;20548;-79
2023/08/15 03:29:36;;;;;;;4.33;3.93;;;17.30;99.90;;;;;;5080768;28;20448;-79
2023/08/15 03:32:03;;;;;;;4.57;3.60;;;17.40;99.90;;;;;;5080430;28;20470;-79
2023/08/15 03:34:30;;;;;;;5.07;4.40;;;17.40;99.90;;;;;;5081547;28;20451;-79
2023/08/15 03:36:57;;;;;;;10.00;5.40;;;17.40;99.90;;;;;;5087129;28;20569;-79
2023/08/15 03:39:27;;;;;;;3.90;3.60;;;17.50;99.90;;;;;;5080392;28;20471;-80
2023/08/15 03:41:54;;;;;;;4.63;4.23;;;17.40;99.90;;;;;;5082952;28;20497;-80
2023/08/15 03:44:21;;;;;;;6.00;4.27;;;17.30;99.90;;;;;;5080862;28;20543;-80
2023/08/15 03:46:48;;;;;;;4.60;4.17;;;17.30;99.90;;;;;;5082978;28;20491;-79
2023/08/15 03:49:15;;;;;;;4.13;3.83;;;17.20;99.90;;;;;;5082112;28;20452;-81
2023/08/15 03:51:42;;;;;;;4.57;4.17;;;17.20;99.90;;;;;;5079312;28;21142;-78
2023/08/15 03:54:09;;;;;;;4.60;4.20;;;17.20;99.90;;;;;;5072719;28;20450;-79
2023/08/15 03:56:37;;;;;;;4.63;4.33;;;17.10;99.90;;;;;;5072607;28;20547;-80
2023/08/15 03:59:04;;;;;;;4.80;4.40;;;17.10;99.90;;;;;;5080586;28;20913;-80
2023/08/15 04:01:32;;;;;;;6.03;5.60;;;17.10;99.90;;;;;;5079955;28;20512;-79
2023/08/15 04:03:59;;;;;;;4.57;4.13;;;17.10;99.90;;;;;;5081773;28;20479;-80
2023/08/15 04:06:26;;;;;;;5.13;4.40;;;17.10;99.90;;;;;;5081311;28;20491;-81
2023/08/15 04:08:53;;;;;;;4.27;3.90;;;17.20;99.90;;;;;;5086914;28;20444;-80
2023/08/15 04:11:20;;;;;;;3.77;3.47;;;17.20;99.90;;;;;;5083832;28;20452;-80
2023/08/15 04:13:48;;;;;;;4.20;3.90;;;17.30;99.90;;;;;;5079100;28;20547;-81
2023/08/15 04:16:16;;;;;;;3.37;3.07;;;17.30;99.90;;;;;;5076921;28;20491;-80
2023/08/15 04:18:42;;;;;;;5.10;3.63;;;17.50;99.90;;;;;;5086485;28;20491;-79
2023/08/15 04:21:11;;;;;;;3.93;3.53;;;17.50;99.90;;;;;;5083409;28;20541;-79
2023/08/15 04:23:38;;;;;;;3.70;3.50;;;17.50;99.90;;;;;;5081342;28;20492;-78
2023/08/15 04:26:05;;;;;;;4.33;4.03;;;17.60;99.90;;;;;;5083110;28;21046;-80
2023/08/15 04:28:32;;;;;;;3.87;3.57;;;17.60;99.90;;;;;;5078472;28;21161;-80
2023/08/15 04:31:00;;;;;;;4.27;3.87;;;17.80;99.90;;;;;;5083911;28;20440;-80
2023/08/15 04:33:27;;;;;;;4.60;4.30;;;17.80;99.90;;;;;;5079639;28;21148;-79
2023/08/15 04:35:54;;;;;;;4.40;4.10;;;17.90;99.90;;;;;;5080564;28;20598;-80
2023/08/15 04:38:21;;;;;;;4.27;3.97;;;17.90;99.90;;;;;;5084142;28;20518;-79
2023/08/15 04:40:48;;;;;;;3.90;3.60;;;18.00;99.90;;;;;;5081355;28;20443;-79
2023/08/15 04:43:16;;;;;;;4.40;4.00;;;18.10;99.90;;;;;;5084803;28;20491;-80
2023/08/15 04:45:43;;;;;;;3.90;3.63;;;18.30;99.90;;;;;;5081062;28;20498;-79
2023/08/15 04:48:13;;;;;;;3.90;3.60;;;18.20;99.90;;;;;;5083443;28;20445;-79
2023/08/15 04:50:40;;;;;;;4.30;4.00;;;18.40;99.90;;;;;;5081702;28;20497;-79
2023/08/15 04:53:07;;;;;;;4.73;4.33;;;18.30;99.90;;;;;;5081270;28;20521;-81
2023/08/15 04:55:34;;;;;;;4.00;3.70;;;18.20;99.90;;;;;;5080672;28;20456;-80
2023/08/15 04:58:01;;;;;;;5.03;4.63;;;18.30;99.90;;;;;;5082319;28;20484;-80
2023/08/15 05:00:28;;;;;;;4.67;4.27;;;18.40;99.90;;;;;;5083537;28;20531;-80
2023/08/15 05:02:55;;;;;;;4.70;4.30;;;18.40;99.90;;;;;;5089382;28;20465;-78
2023/08/15 05:05:24;;;;;;;6.37;4.57;;;18.50;99.90;;;;;;5083084;28;20491;-80
2023/08/15 05:07:51;;;;;;;5.37;4.90;;;18.50;99.90;;;;;;5082580;28;20467;-79
2023/08/15 05:10:17;;;;;;;4.13;3.70;;;18.60;99.90;;;;;;5082115;28;20822;-79
2023/08/15 05:12:44;;;;;;;3.97;3.67;;;18.70;99.90;;;;;;5078638;28;20466;-80
2023/08/15 05:15:11;;;;;;;5.53;5.13;;;18.70;99.90;;;;;;5082547;28;20464;-79
2023/08/15 05:17:38;;;;;;;3.97;3.67;;;18.80;99.90;;;;;;5076535;28;21039;-82
2023/08/15 05:20:07;;;;;;;4.03;3.47;;;18.90;99.90;;;;;;5077820;28;20491;-80
2023/08/15 05:22:36;;;;;;;4.23;3.83;;;18.90;99.90;;;;;;5082345;28;20454;-80
2023/08/15 05:25:03;;;;;;;4.80;4.37;;;18.90;99.90;;;;;;5085946;28;21025;-82
2023/08/15 05:27:30;;;;;;;4.00;3.53;;;19.00;99.90;;;;;;5085041;28;20882;-81
2023/08/15 05:29:57;;;;;;;4.00;3.60;;;19.00;99.90;;;;;;5081532;28;20455;-79
2023/08/15 05:32:24;;;;;;;4.43;4.13;;;19.20;99.90;;;;;;5085825;28;20524;-81
2023/08/15 05:34:51;;;;;;;4.63;4.20;;;19.20;99.90;;;;;;5083830;28;20516;-80
2023/08/15 05:37:18;;;;;;;4.50;4.20;;;19.30;99.90;;;;;;5082934;28;20470;-77
2023/08/15 05:39:46;;;;;;;8.73;5.03;;;19.40;99.90;;;;;;5090324;28;20498;-80
2023/08/15 05:42:17;;;;;;;4.00;3.70;;;19.40;99.90;;;;;;5090291;28;20541;-81
2023/08/15 05:44:45;;;;;;;4.00;3.70;;;19.60;99.90;;;;;;5083586;28;20974;-77
2023/08/15 05:47:12;;;;;;;4.10;3.27;;;19.70;99.90;;;;;;5082728;28;20516;-80
2023/08/15 05:49:39;;;;;;;3.90;3.60;;;19.70;99.90;;;;;;5087582;28;20502;-79
2023/08/15 05:52:06;;;;;;;4.20;3.80;;;19.80;99.90;;;;;;5082297;28;20478;-80
2023/08/15 05:54:33;;;;;;;4.53;4.10;;;19.90;99.90;;;;;;5087204;28;20468;-80
2023/08/15 05:57:01;;;;;;;4.13;3.37;;;19.90;99.90;;;;;;5080972;28;20471;-81
2023/08/15 05:59:28;;;;;;;3.57;3.37;;;20.10;99.90;;;;;;5083753;28;20487;-80
2023/08/15 06:01:55;;;;;;;3.70;3.50;;;20.10;99.90;;;;;;5087459;28;20486;-79
2023/08/15 06:04:22;;;;;;;3.33;3.13;;;20.20;99.90;;;;;;5081518;28;20448;-78
2023/08/15 06:06:49;;;;;;;4.47;4.07;;;20.30;99.90;;;;;;5078365;28;20560;-78
2023/08/15 06:09:16;;;;;;;3.43;3.20;;;20.40;99.90;;;;;;5081516;28;20504;-80
2023/08/15 06:11:43;;;;;;;4.40;4.10;;;20.60;99.90;;;;;;5072186;28;20463;-81
2023/08/15 06:14:11;;;;;;;3.57;3.30;;;20.60;99.90;;;;;;5085883;28;20551;-79
2023/08/15 06:16:38;;;;;;;3.97;3.10;;;20.80;99.90;;;;;;5080773;28;20470;-78
2023/08/15 06:19:05;;;;;;;3.33;3.13;;;20.80;99.90;;;;;;5084710;28;20528;-80
2023/08/15 06:21:32;;;;;;;2.90;2.60;;;20.90;99.90;;;;;;5082061;28;20449;-78
2023/08/15 06:23:59;;;;;;;4.37;4.07;;;21.00;99.90;;;;;;5084879;28;20463;-80
2023/08/15 06:26:26;;;;;;;2.83;2.63;;;21.20;99.90;;;;;;5079151;28;21033;-77
2023/08/15 06:28:52;;;;;;;4.57;3.43;;;21.40;99.90;;;;;;5085026;28;20459;-80
2023/08/15 06:31:21;;;;;;;3.73;3.43;;;21.50;99.90;;;;;;5088263;28;20873;-89
2023/08/15 06:33:48;;;;;;;3.63;3.33;;;21.60;99.90;;;;;;5088848;28;20451;-86
2023/08/15 06:36:15;;;;;;;4.23;3.83;;;21.70;99.90;;;;;;5086803;28;20552;-81
2023/08/15 06:38:41;;;;;;;3.17;2.90;;;21.90;99.90;;;;;;5073942;28;20604;-80
2023/08/15 06:41:08;;;;;;;3.80;3.60;;;22.00;99.90;;;;;;5082813;28;20436;-81
2023/08/15 06:43:35;;;;;;;4.17;3.80;;;22.10;99.90;;;;;;5081452;28;20448;-77
2023/08/15 06:46:02;;;;;;;4.10;3.50;;;22.20;99.90;;;;;;5083703;28;20946;-83
2023/08/15 06:48:31;;;;;;;3.77;3.00;;;22.00;99.90;;;;;;5081141;28;20538;-79
2023/08/15 06:50:58;;;;;;;3.57;3.37;;;22.20;99.90;;;;;;5084366;28;20447;-78
2023/08/15 06:53:25;;;;;;;3.90;3.60;;;22.20;99.90;;;;;;5080691;28;20977;-77
2023/08/15 06:55:52;;;;;;;3.50;3.13;;;22.50;99.90;;;;;;5081149;28;20439;-78
2023/08/15 06:58:20;;;;;;;3.70;3.40;;;22.60;99.90;;;;;;5084938;28;20482;-81
2023/08/15 07:00:47;;;;;;;3.87;3.60;;;23.00;99.90;;;;;;5076928;28;20480;-78
2023/08/15 07:03:15;;;;;;;4.13;3.73;;;23.10;99.90;;;;;;5081797;28;20491;-79
2023/08/15 07:05:44;;;;;;;3.83;3.53;;;23.00;99.90;;;;;;5081107;28;20520;-78
2023/08/15 07:08:13;;;;;;;2.83;2.63;;;23.20;99.90;;;;;;5079012;28;21012;-78
2023/08/15 07:10:40;;;;;;;4.17;3.77;;;23.10;99.90;;;;;;5082541;28;20444;-78
2023/08/15 07:13:07;;;;;;;3.40;3.20;;;23.40;99.90;;;;;;5080710;28;20876;-78
2023/08/15 07:15:34;;;;;;;4.17;3.77;;;23.30;99.90;;;;;;5082985;28;20443;-79
2023/08/15 07:18:01;;;;;;;4.03;3.73;;;23.50;99.90;;;;;;5082240;28;20452;-78
2023/08/15 07:20:28;;;;;;;4.20;2.60;;;23.70;99.90;;;;;;5083641;28;20509;-79
2023/08/15 07:22:56;;;;;;;3.60;3.40;;;23.80;99.90;;;;;;5081596;28;20459;-79
2023/08/15 07:25:23;;;;;;;3.67;3.37;;;23.60;99.90;;;;;;5083881;28;20471;-78
2023/08/15 07:27:50;;;;;;;5.23;3.23;;;23.60;99.90;;;;;;5086790;28;20441;-78
2023/08/15 07:30:17;;;;;;;4.60;3.47;;;23.50;99.90;;;;;;5086278;28;20508;-79
2023/08/15 07:32:44;;;;;;;4.43;4.13;;;23.70;99.90;;;;;;5085290;28;20445;-80
2023/08/15 07:35:11;;;;;;;7.07;4.37;;;24.00;99.60;;;;;;5082255;28;20447;-78
2023/08/15 07:37:38;;;;;;;4.10;3.80;;;24.10;99.90;;;;;;5086796;28;20526;-78
2023/08/15 07:40:10;;;;;;;4.07;3.77;;;24.10;99.70;;;;;;5085115;28;20486;-78
2023/08/15 07:42:38;;;;;;;3.70;3.10;;;24.10;99.90;;;;;;5087919;28;20527;-78
2023/08/15 07:45:07;;;;;;;4.60;3.17;;;24.30;98.80;;;;;;5081568;28;20542;-77
2023/08/15 07:47:36;;;;;;;5.33;4.93;;;24.50;98.10;;;;;;5088130;28;21082;-79
2023/08/15 07:50:16;;;;;;;3.13;2.90;;;24.60;97.80;;;;;;5083708;28;21007;-81
2023/08/15 07:52:44;;;;;;;3.90;3.70;;;24.80;98.70;;;;;;5081391;28;20504;-78
2023/08/15 07:55:13;;;;;;;4.93;4.43;;;25.00;96.70;;;;;;5080735;28;20532;-79
2023/08/15 07:57:40;;;;;;;3.43;3.20;;;24.90;96.50;;;;;;5084562;28;20996;-78
2023/08/15 08:00:09;;;;;;;3.40;3.10;;;24.90;98.20;;;;;;5087064;28;20903;-77
2023/08/15 08:02:36;;;;;;;3.60;3.37;;;25.30;96.70;;;;;;5085797;28;21042;-78
2023/08/15 08:05:06;;;;;;;3.80;3.07;;;25.40;95.60;;;;;;5086845;28;20451;-77
2023/08/15 08:07:33;;;;;;;4.03;3.50;;;25.60;97.30;;;;;;5085114;28;20478;-79
2023/08/15 08:10:00;;;;;;;3.03;2.83;;;25.80;95.60;;;;;;5086412;28;20474;-78
2023/08/15 08:12:30;;;;;;;4.47;4.17;;;25.70;94.40;;;;;;5086292;28;20756;-77
2023/08/15 08:14:58;;;;;;;3.73;3.53;;;25.80;97.10;;;;;;5086731;28;20445;-79
2023/08/15 08:17:25;;;;;;;3.50;3.20;;;25.60;95.20;;;;;;5085425;28;20535;-79
2023/08/15 08:19:52;;;;;;;5.83;3.40;;;25.50;97.20;;;;;;5081084;28;20519;-77
2023/08/15 08:22:19;;;;;;;3.77;3.43;;;25.70;94.40;;;;;;5080398;28;20495;-80
2023/08/15 08:24:46;;;;;;;3.53;3.07;;;26.00;96.40;;;;;;5087171;28;20528;-78
2023/08/15 08:27:14;;;;;;;4.57;2.67;;;26.00;94.40;;;;;;5086143;28;20954;-80
2023/08/15 08:29:42;;;;;;;3.83;3.63;;;26.00;93.80;;;;;;5086129;28;20447;-77
2023/08/15 08:32:09;;;;;;;2.63;2.53;;;25.80;94.80;;;;;;5081087;28;20451;-80
2023/08/15 08:34:36;;;;;;;4.50;4.07;;;26.20;96.10;;;;;;5086200;28;21007;-78
2023/08/15 08:37:03;;;;;;;3.73;3.43;;;26.40;95.30;;;;;;5080614;28;20513;-80
2023/08/15 08:39:30;;;;;;;3.20;3.00;;;26.60;97.90;;;;;;5086608;28;20547;-78
2023/08/15 08:41:57;;;;;;;3.30;3.00;;;26.60;96.20;;;;;;5086303;28;20443;-77
2023/08/15 08:44:26;;;;;;;3.77;3.03;;;27.00;94.70;;;;;;5081524;28;20503;-78
2023/08/15 08:46:54;;;;;;;12.03;5.10;;;26.80;95.60;;;;;;5083306;28;20560;-78
2023/08/15 08:49:23;;;;;;;6.00;4.10;;;26.80;96.10;;;;;;5084541;28;20447;-77
2023/08/15 08:51:52;;;;;;;4.77;4.10;;;26.80;94.20;;;;;;5085698;28;20492;-78
2023/08/15 08:54:19;;;;;;;3.47;3.17;;;26.80;94.10;;;;;;5083267;28;20999;-78
2023/08/15 08:56:49;;;;;;;3.13;2.93;;;27.10;95.30;;;;;;5082075;28;20479;-77
2023/08/15 08:59:21;;;;;;;3.60;3.30;;;26.80;93.40;;;;;;5081079;28;20474;-78
2023/08/15 09:01:49;;;;;;;3.97;3.57;;;27.10;94.20;;;;;;5080362;28;20477;-78
2023/08/15 09:04:21;;;;;;;3.50;3.30;;;27.20;96.10;;;;;;5084650;28;20446;-78
2023/08/15 09:06:48;;;;;;;3.83;3.53;;;27.10;94.20;;;;;;5084186;28;20467;-78
2023/08/15 09:09:15;;;;;;;4.83;4.10;;;27.20;94.20;;;;;;5086099;28;20519;-80
2023/08/15 09:11:42;;;;;;;5.00;4.70;;;27.50;95.00;;;;;;5079844;28;20559;-78
2023/08/15 09:14:09;;;;;;;3.63;3.43;;;27.40;93.40;;;;;;5085732;28;20887;-79
2023/08/15 09:16:47;;;;;;;4.30;4.00;;;27.40;95.10;;;;;;5082846;28;20455;-85
2023/08/15 09:19:14;;;;;;;6.70;4.10;;;27.50;92.00;;;;;;5083080;28;20999;-82
2023/08/15 09:21:43;;;;;;;4.27;3.77;;;27.60;93.10;;;;;;5075113;28;20560;-79
2023/08/15 09:24:10;;;;;;;4.80;4.27;;;27.40;91.70;;;;;;5084169;28;20439;-81
2023/08/15 09:26:39;;;;;;;5.27;4.13;;;27.50;92.40;;;;;;5085921;28;20522;-82
2023/08/15 09:29:06;;;;;;;3.57;3.37;;;27.60;93.70;;;;;;5085490;28;20581;-81
2023/08/15 09:31:34;;;;;;;7.10;6.60;;;27.70;92.80;;;;;;5085973;28;20439;-81
2023/08/15 09:34:01;;;;;;;4.03;3.73;;;27.80;91.40;;;;;;5085718;28;20475;-80
2023/08/15 09:36:28;;;;;;;4.73;4.20;;;28.10;92.00;;;;;;5086368;28;20447;-81
2023/08/15 09:39:00;;;;;;;3.50;3.30;;;28.30;91.30;;;;;;5083504;28;20585;-82
2023/08/15 09:41:27;;;;;;;5.73;5.23;;;28.20;88.90;;;;;;5078188;28;20465;-79
2023/08/15 09:43:55;;;;;;;3.93;3.50;;;28.30;90.70;;;;;;5073061;28;20432;-79
2023/08/15 09:46:22;;;;;;;4.43;4.03;;;28.20;89.00;;;;;;5077982;28;21199;-79
2023/08/15 09:48:51;;;;;;;3.60;3.30;;;28.30;90.10;;;;;;5069190;28;20436;-80
2023/08/15 09:51:19;;;;;;;3.50;3.30;;;28.10;87.50;;;;;;5070476;28;20443;-81
2023/08/15 09:53:47;;;;;;;3.93;3.63;;;28.30;89.20;;;;;;5068008;28;20456;-82
2023/08/15 09:56:20;;;;;;;3.70;3.50;;;28.40;87.00;;;;;;5079081;28;20443;-79
2023/08/15 09:58:47;;;;;;;3.93;3.30;;;28.60;83.80;;;;;;5066651;28;20466;-80
2023/08/15 10:01:15;;;;;;;3.57;3.30;;;28.50;84.20;;;;;;5068483;28;20497;-80
2023/08/15 10:03:44;;;;;;;4.10;3.80;;;28.70;84.80;;;;;;5077309;28;20483;-80
2023/08/15 10:06:12;;;;;;;3.00;2.80;;;28.80;87.40;;;;;;5070385;28;20466;-80
2023/08/15 10:08:39;;;;;;;3.80;3.60;;;28.70;89.40;;;;;;5072835;28;20478;-80
2023/08/15 10:11:09;;;;;;;4.10;3.80;;;28.60;85.00;;;;;;5075395;28;20468;-80
2023/08/15 10:13:38;;;;;;;3.43;3.13;;;28.70;86.10;;;;;;5071924;28;20449;-80
2023/08/15 10:16:07;;;;;;;3.03;2.73;;;28.80;91.90;;;;;;5079778;28;20548;-81
2023/08/15 10:18:35;;;;;;;3.80;3.50;;;28.60;87.00;;;;;;5073585;28;20508;-80
2023/08/15 10:21:02;;;;;;;4.00;3.73;;;28.60;90.30;;;;;;5081770;28;20509;-79
2023/08/15 10:23:30;;;;;;;3.17;2.87;;;28.60;91.10;;;;;;5079944;28;20543;-82
2023/08/15 10:25:58;;;;;;;4.80;4.50;;;28.70;90.30;;;;;;5087476;28;20516;-80
2023/08/15 10:28:28;;;;;;;4.20;3.03;;;28.90;91.60;;;;;;5088749;28;20479;-82
2023/08/15 10:30:57;;;;;;;3.53;3.20;;;29.00;89.40;;;;;;5089428;28;20872;-82
2023/08/15 10:33:26;;;;;;;3.47;3.17;;;28.60;84.80;;;;;;5085540;28;20486;-82
2023/08/15 10:36:07;;;;;;;14.53;3.87;;;28.70;86.20;;;;;;5089642;28;20446;-83
2023/08/15 10:38:37;;;;;;;4.20;3.90;;;28.90;91.30;;;;;;5084364;28;20482;-83
2023/08/15 10:41:05;;;;;;;3.87;3.67;;;28.90;89.30;;;;;;5088607;28;20509;-80
2023/08/15 10:43:34;;;;;;;4.10;3.80;;;29.30;89.10;;;;;;5084227;28;20455;-80
2023/08/15 10:46:04;;;;;;;7.23;3.83;;;29.50;87.00;;;;;;5084727;28;21179;-83
2023/08/15 10:48:41;;;;;;;3.60;3.40;;;29.50;83.70;;;;;;5088491;28;20474;-79
2023/08/15 10:51:16;;;;;;;3.40;3.10;;;29.60;82.20;;;;;;5082103;28;20495;-80
2023/08/15 10:53:44;;;;;;;4.13;3.83;;;29.60;84.50;;;;;;5082449;28;20517;-79
2023/08/15 10:56:11;;;;;;;3.50;3.20;;;29.60;81.60;;;;;;5073467;28;20451;-80
2023/08/15 10:58:39;;;;;;;3.50;3.20;;;29.70;88.30;;;;;;5074606;28;20439;-80
2023/08/15 11:01:07;;;;;;;4.70;3.20;;;29.70;83.10;;;;;;5073229;28;20507;-80
2023/08/15 11:03:35;;;;;;;3.20;3.00;;;29.50;86.00;;;;;;5086154;28;20568;-79
2023/08/15 11:06:09;;;;;;;3.23;3.03;;;29.40;87.80;;;;;;5080703;28;20699;-80
2023/08/15 11:08:41;;;;;;;3.20;3.00;;;29.50;88.40;;;;;;5086031;28;20475;-79
2023/08/15 11:11:08;;;;;;;7.20;4.20;;;29.70;91.00;;;;;;5071706;28;20550;-81
2023/08/15 11:13:38;;;;;;;3.73;3.40;;;29.90;86.20;;;;;;5069859;28;20915;-83
2023/08/15 11:16:07;;;;;;;4.17;3.87;;;29.90;87.90;;;;;;5081437;28;20457;-79
2023/08/15 11:18:35;;;;;;;4.13;3.90;;;30.30;85.00;;;;;;5082465;28;20447;-78
2023/08/15 11:21:03;;;;;;;3.53;3.23;;;30.20;84.40;;;;;;5077760;28;21236;-79
2023/08/15 11:23:31;;;;;;;4.90;3.80;;;30.20;84.00;;;;;;5079693;28;20444;-78
2023/08/15 11:26:02;;;;;;;5.60;5.13;;;30.20;85.60;;;;;;5078964;28;20540;-79
2023/08/15 11:28:30;;;;;;;4.30;4.00;;;30.10;85.50;;;;;;5076895;28;20889;-77
2023/08/15 11:30:57;;;;;;;3.63;3.37;;;30.20;81.40;;;;;;5077297;28;20561;-78
2023/08/15 11:33:25;;;;;;;3.33;3.13;;;30.40;80.50;;;;;;5079404;28;20448;-76
2023/08/15 11:35:52;;;;;;;4.00;3.70;;;30.40;78.20;;;;;;5074827;28;20544;-76
2023/08/15 11:38:19;;;;;;;4.70;3.80;;;30.50;83.70;;;;;;5081507;28;20539;-77
2023/08/15 11:40:47;;;;;;;3.60;3.30;;;30.40;80.70;;;;;;5084400;28;20486;-80
2023/08/15 11:43:15;;;;;;;3.53;3.20;;;30.40;80.50;;;;;;5076732;28;20467;-80
2023/08/15 11:45:44;;;;;;;3.60;3.40;;;30.50;86.40;;;;;;5076901;28;20546;-82
2023/08/15 11:48:12;;;;;;;3.23;3.03;;;30.90;86.30;;;;;;5077985;28;20530;-78
2023/08/15 11:50:41;;;;;;;3.53;3.00;;;30.70;80.40;;;;;;5077956;28;20475;-76
2023/08/15 11:53:09;;;;;;;3.67;3.37;;;30.90;81.70;;;;;;5083291;28;20830;-78
2023/08/15 11:55:37;;;;;;;4.07;3.87;;;30.50;84.30;;;;;;5083845;28;20834;-78
2023/08/15 11:58:20;;;;;;;3.67;3.37;;;30.70;80.70;;;;;;5082918;28;20435;-77
2023/08/15 12:00:47;;;;;;;6.83;4.07;;;30.80;85.00;;;;;;5079841;28;20523;-77
2023/08/15 12:03:15;;;;;;;3.67;3.30;;;30.80;81.40;;;;;;5069955;28;20516;-80
2023/08/15 12:05:47;;;;;;;5.03;4.07;;;30.70;83.60;;;;;;5077156;28;20578;-79
2023/08/15 12:08:16;;;;;;;3.67;3.37;;;30.70;84.20;;;;;;5073516;28;20444;-77
2023/08/15 12:10:43;;;;;;;3.00;2.80;;;30.50;79.60;;;;;;5071971;28;20519;-78
2023/08/15 12:13:10;;;;;;;3.10;2.90;;;30.40;80.90;;;;;;5076519;28;20536;-78
2023/08/15 12:15:38;;;;;;;2.93;2.63;;;30.40;80.30;;;;;;5080032;28;20926;-78
2023/08/15 12:18:05;;;;;;;4.40;3.90;;;30.70;81.80;;;;;;5078100;28;20827;-78
2023/08/15 12:20:32;;;;;;;3.13;2.77;;;30.80;80.00;;;;;;5073666;28;20479;-79
2023/08/15 12:23:00;;;;;;;2.97;2.77;;;30.80;79.40;;;;;;5076032;28;20451;-78
2023/08/15 12:25:28;;;;;;;4.83;3.17;;;30.70;78.10;;;;;;5084673;28;20508;-80
2023/08/15 12:27:55;;;;;;;3.20;3.00;;;30.80;82.50;;;;;;5086929;28;20827;-80
2023/08/15 12:30:22;;;;;;;3.23;3.07;;;31.20;78.40;;;;;;5086591;28;20538;-79
2023/08/15 12:32:49;;;;;;;3.07;2.90;;;31.40;80.50;;;;;;5085182;28;20459;-78
2023/08/15 12:35:16;;;;;;;3.40;3.10;;;31.50;83.50;;;;;;5073705;28;20513;-78
2023/08/15 12:37:43;;;;;;;3.60;3.40;;;31.40;81.20;;;;;;5085546;28;20435;-79
2023/08/15 12:40:12;;;;;;;6.30;4.47;;;31.20;78.00;;;;;;5084349;28;20544;-81
2023/08/15 12:42:39;;;;;;;3.27;3.07;;;31.40;85.80;;;;;;5070968;28;20534;-79
2023/08/15 12:45:07;;;;;;;2.43;2.33;;;31.20;78.50;;;;;;5077054;28;20882;-80
2023/08/15 12:47:34;;;;;;;3.33;3.13;;;31.20;77.40;;;;;;5078402;28;20436;-80
2023/08/15 12:50:01;;;;;;;3.30;3.20;;;31.60;80.40;;;;;;5081316;28;20459;-80